sensor_id;sensor_type;location;lat;lon;timestamp;P1;durP1;ratioP1;P2;durP2;ratioP2
20146;SDS011;10234;50.856;15.716;2022-08-21T00:01:15;5.70;;;5.20;;
20146;SDS011;10234;50.856;15.716;2022-08-21T00:03:46;6.45;;;5.25;;
20146;SDS011;10234;50.856;15.716;2022-08-21T00:06:13;5.85;;;5.25;;
20146;SDS011;10234;50.856;15.716;2022-08-21T00:08:40;5.72;;;5.22;;
20146;SDS011;10234;50.856;15.716;2022-08-21T00:11:08;6.28;;;5.72;;
20146;SDS011;10234;50.856;15.716;2022-08-21T00:13:35;6.70;;;6.00;;
20146;SDS011;10234;50.856;15.716;2022-08-21T00:16:03;8.35;;;5.93;;
20146;SDS011;10234;50.856;15.716;2022-08-21T00:18:30;6.45;;;5.85;;
20146;SDS011;10234;50.856;15.716;2022-08-21T00:21:01;5.97;;;5.45;;
20146;SDS011;10234;50.856;15.716;2022-08-21T00:23:28;6.47;;;5.78;;
20146;SDS011;10234;50.856;15.716;2022-08-21T00:25:55;5.43;;;4.93;;
20146;SDS011;10234;50.856;15.716;2022-08-21T00:28:22;5.78;;;5.22;;
20146;SDS011;10234;50.856;15.716;2022-08-21T00:30:48;5.97;;;5.38;;
20146;SDS011;10234;50.856;15.716;2022-08-21T00:33:16;5.35;;;4.85;;
20146;SDS011;10234;50.856;15.716;2022-08-21T00:35:42;5.47;;;4.97;;
20146;SDS011;10234;50.856;15.716;2022-08-21T00:38:11;5.07;;;4.68;;
20146;SDS011;10234;50.856;15.716;2022-08-21T00:40:39;5.70;;;5.20;;
20146;SDS011;10234;50.856;15.716;2022-08-21T00:43:11;5.22;;;4.82;;
20146;SDS011;10234;50.856;15.716;2022-08-21T00:45:40;6.30;;;5.70;;
20146;SDS011;10234;50.856;15.716;2022-08-21T00:48:07;5.65;;;5.15;;
20146;SDS011;10234;50.856;15.716;2022-08-21T00:50:36;6.72;;;5.95;;
20146;SDS011;10234;50.856;15.716;2022-08-21T00:53:06;7.30;;;6.25;;
20146;SDS011;10234;50.856;15.716;2022-08-21T00:55:37;7.60;;;6.90;;
20146;SDS011;10234;50.856;15.716;2022-08-21T00:58:05;7.45;;;6.70;;
20146;SDS011;10234;50.856;15.716;2022-08-21T01:00:35;8.65;;;7.78;;
20146;SDS011;10234;50.856;15.716;2022-08-21T01:03:05;8.65;;;7.75;;
20146;SDS011;10234;50.856;15.716;2022-08-21T01:05:34;8.30;;;7.50;;
20146;SDS011;10234;50.856;15.716;2022-08-21T01:08:02;11.02;;;8.73;;
20146;SDS011;10234;50.856;15.716;2022-08-21T01:10:30;9.50;;;8.57;;
20146;SDS011;10234;50.856;15.716;2022-08-21T01:12:58;10.93;;;9.48;;
20146;SDS011;10234;50.856;15.716;2022-08-21T01:15:27;10.88;;;9.77;;
20146;SDS011;10234;50.856;15.716;2022-08-21T01:17:58;10.82;;;9.32;;
20146;SDS011;10234;50.856;15.716;2022-08-21T01:20:26;10.07;;;9.07;;
20146;SDS011;10234;50.856;15.716;2022-08-21T01:22:54;12.23;;;10.80;;
20146;SDS011;10234;50.856;15.716;2022-08-21T01:25:21;10.23;;;9.23;;
20146;SDS011;10234;50.856;15.716;2022-08-21T01:27:48;11.60;;;10.40;;
20146;SDS011;10234;50.856;15.716;2022-08-21T01:30:17;10.95;;;9.80;;
20146;SDS011;10234;50.856;15.716;2022-08-21T01:32:47;12.07;;;10.52;;
20146;SDS011;10234;50.856;15.716;2022-08-21T01:35:16;11.90;;;10.50;;
20146;SDS011;10234;50.856;15.716;2022-08-21T01:37:47;11.68;;;10.15;;
20146;SDS011;10234;50.856;15.716;2022-08-21T01:40:16;12.05;;;10.77;;
20146;SDS011;10234;50.856;15.716;2022-08-21T01:42:44;11.15;;;10.05;;
20146;SDS011;10234;50.856;15.716;2022-08-21T01:45:12;12.23;;;10.93;;
20146;SDS011;10234;50.856;15.716;2022-08-21T01:47:42;12.02;;;10.75;;
20146;SDS011;10234;50.856;15.716;2022-08-21T01:50:10;12.05;;;10.85;;
20146;SDS011;10234;50.856;15.716;2022-08-21T01:52:39;11.50;;;10.30;;
20146;SDS011;10234;50.856;15.716;2022-08-21T01:55:06;12.43;;;10.65;;
20146;SDS011;10234;50.856;15.716;2022-08-21T01:57:36;13.07;;;11.73;;
20146;SDS011;10234;50.856;15.716;2022-08-21T02:00:04;13.18;;;11.75;;
20146;SDS011;10234;50.856;15.716;2022-08-21T02:02:33;13.82;;;12.10;;
20146;SDS011;10234;50.856;15.716;2022-08-21T02:05:00;12.85;;;11.48;;
20146;SDS011;10234;50.856;15.716;2022-08-21T02:07:27;14.40;;;12.02;;
20146;SDS011;10234;50.856;15.716;2022-08-21T02:09:53;13.43;;;11.57;;
20146;SDS011;10234;50.856;15.716;2022-08-21T02:12:20;15.00;;;12.13;;
20146;SDS011;10234;50.856;15.716;2022-08-21T02:14:48;12.93;;;11.07;;
20146;SDS011;10234;50.856;15.716;2022-08-21T02:17:15;12.38;;;11.07;;
20146;SDS011;10234;50.856;15.716;2022-08-21T02:19:42;13.00;;;11.40;;
20146;SDS011;10234;50.856;15.716;2022-08-21T02:22:09;12.98;;;11.68;;
20146;SDS011;10234;50.856;15.716;2022-08-21T02:24:36;12.57;;;11.27;;
20146;SDS011;10234;50.856;15.716;2022-08-21T02:27:03;12.60;;;11.30;;
20146;SDS011;10234;50.856;15.716;2022-08-21T02:29:30;13.65;;;11.13;;
20146;SDS011;10234;50.856;15.716;2022-08-21T02:31:58;12.43;;;11.13;;
20146;SDS011;10234;50.856;15.716;2022-08-21T02:34:25;10.88;;;9.75;;
20146;SDS011;10234;50.856;15.716;2022-08-21T02:36:52;10.13;;;9.02;;
20146;SDS011;10234;50.856;15.716;2022-08-21T02:39:19;9.02;;;8.13;;
20146;SDS011;10234;50.856;15.716;2022-08-21T02:41:46;8.48;;;7.57;;
20146;SDS011;10234;50.856;15.716;2022-08-21T02:44:12;7.93;;;7.22;;
20146;SDS011;10234;50.856;15.716;2022-08-21T02:46:39;7.18;;;6.50;;
20146;SDS011;10234;50.856;15.716;2022-08-21T02:49:07;7.05;;;6.45;;
20146;SDS011;10234;50.856;15.716;2022-08-21T02:51:34;6.93;;;6.22;;
20146;SDS011;10234;50.856;15.716;2022-08-21T02:54:01;7.03;;;6.32;;
20146;SDS011;10234;50.856;15.716;2022-08-21T02:56:28;5.72;;;5.22;;
20146;SDS011;10234;50.856;15.716;2022-08-21T02:58:55;6.53;;;5.50;;
20146;SDS011;10234;50.856;15.716;2022-08-21T03:01:22;6.20;;;5.60;;
20146;SDS011;10234;50.856;15.716;2022-08-21T03:03:48;5.07;;;4.65;;
20146;SDS011;10234;50.856;15.716;2022-08-21T03:06:18;5.95;;;5.35;;
20146;SDS011;10234;50.856;15.716;2022-08-21T03:08:46;5.10;;;4.68;;
20146;SDS011;10234;50.856;15.716;2022-08-21T03:11:13;6.57;;;5.97;;
20146;SDS011;10234;50.856;15.716;2022-08-21T03:13:41;7.07;;;6.10;;
20146;SDS011;10234;50.856;15.716;2022-08-21T03:16:08;6.68;;;5.30;;
20146;SDS011;10234;50.856;15.716;2022-08-21T03:18:35;7.95;;;5.45;;
20146;SDS011;10234;50.856;15.716;2022-08-21T03:21:02;5.85;;;5.35;;
20146;SDS011;10234;50.856;15.716;2022-08-21T03:23:32;5.78;;;5.22;;
20146;SDS011;10234;50.856;15.716;2022-08-21T03:25:59;6.20;;;5.68;;
20146;SDS011;10234;50.856;15.716;2022-08-21T03:28:26;6.13;;;5.45;;
20146;SDS011;10234;50.856;15.716;2022-08-21T03:30:53;4.60;;;4.22;;
20146;SDS011;10234;50.856;15.716;2022-08-21T03:33:20;7.10;;;4.93;;
20146;SDS011;10234;50.856;15.716;2022-08-21T03:35:48;5.25;;;4.60;;
20146;SDS011;10234;50.856;15.716;2022-08-21T03:38:21;5.63;;;5.13;;
20146;SDS011;10234;50.856;15.716;2022-08-21T03:40:49;6.07;;;5.57;;
20146;SDS011;10234;50.856;15.716;2022-08-21T03:43:16;6.85;;;5.60;;
20146;SDS011;10234;50.856;15.716;2022-08-21T03:45:43;6.88;;;6.18;;
20146;SDS011;10234;50.856;15.716;2022-08-21T03:48:10;6.18;;;5.57;;
20146;SDS011;10234;50.856;15.716;2022-08-21T03:50:37;7.20;;;5.82;;
20146;SDS011;10234;50.856;15.716;2022-08-21T03:53:06;6.38;;;5.47;;
20146;SDS011;10234;50.856;15.716;2022-08-21T03:55:33;6.10;;;5.50;;
20146;SDS011;10234;50.856;15.716;2022-08-21T03:58:01;6.55;;;5.90;;
20146;SDS011;10234;50.856;15.716;2022-08-21T04:00:29;6.13;;;5.53;;
20146;SDS011;10234;50.856;15.716;2022-08-21T04:02:56;6.18;;;5.63;;
20146;SDS011;10234;50.856;15.716;2022-08-21T04:05:23;5.60;;;5.10;;
20146;SDS011;10234;50.856;15.716;2022-08-21T04:07:56;5.35;;;4.88;;
20146;SDS011;10234;50.856;15.716;2022-08-21T04:10:25;5.28;;;4.88;;
20146;SDS011;10234;50.856;15.716;2022-08-21T04:12:53;7.15;;;5.25;;
20146;SDS011;10234;50.856;15.716;2022-08-21T04:15:23;5.63;;;5.13;;
20146;SDS011;10234;50.856;15.716;2022-08-21T04:17:51;5.25;;;4.75;;
20146;SDS011;10234;50.856;15.716;2022-08-21T04:20:18;6.57;;;5.03;;
20146;SDS011;10234;50.856;15.716;2022-08-21T04:22:46;5.22;;;4.78;;
20146;SDS011;10234;50.856;15.716;2022-08-21T04:25:14;5.53;;;5.03;;
20146;SDS011;10234;50.856;15.716;2022-08-21T04:27:41;5.78;;;5.28;;
20146;SDS011;10234;50.856;15.716;2022-08-21T04:30:11;4.85;;;4.45;;
20146;SDS011;10234;50.856;15.716;2022-08-21T04:32:43;5.93;;;4.57;;
20146;SDS011;10234;50.856;15.716;2022-08-21T04:35:13;5.15;;;4.40;;
20146;SDS011;10234;50.856;15.716;2022-08-21T04:37:41;4.50;;;4.10;;
20146;SDS011;10234;50.856;15.716;2022-08-21T04:40:08;4.40;;;4.00;;
20146;SDS011;10234;50.856;15.716;2022-08-21T04:42:41;4.05;;;3.72;;
20146;SDS011;10234;50.856;15.716;2022-08-21T04:45:14;3.35;;;3.15;;
20146;SDS011;10234;50.856;15.716;2022-08-21T04:47:46;3.47;;;3.17;;
20146;SDS011;10234;50.856;15.716;2022-08-21T04:50:13;3.78;;;3.47;;
20146;SDS011;10234;50.856;15.716;2022-08-21T04:52:40;4.40;;;4.00;;
20146;SDS011;10234;50.856;15.716;2022-08-21T04:55:07;4.78;;;4.38;;
20146;SDS011;10234;50.856;15.716;2022-08-21T04:57:34;3.50;;;3.22;;
20146;SDS011;10234;50.856;15.716;2022-08-21T05:00:03;3.47;;;3.17;;
20146;SDS011;10234;50.856;15.716;2022-08-21T05:02:31;4.18;;;3.15;;
20146;SDS011;10234;50.856;15.716;2022-08-21T05:05:00;3.53;;;3.22;;
20146;SDS011;10234;50.856;15.716;2022-08-21T05:07:27;4.28;;;3.88;;
20146;SDS011;10234;50.856;15.716;2022-08-21T05:09:56;3.80;;;3.50;;
20146;SDS011;10234;50.856;15.716;2022-08-21T05:12:25;4.38;;;3.80;;
20146;SDS011;10234;50.856;15.716;2022-08-21T05:14:52;5.30;;;4.80;;
20146;SDS011;10234;50.856;15.716;2022-08-21T05:17:19;5.25;;;4.75;;
20146;SDS011;10234;50.856;15.716;2022-08-21T05:19:46;5.50;;;5.00;;
20146;SDS011;10234;50.856;15.716;2022-08-21T05:22:19;5.85;;;5.25;;
20146;SDS011;10234;50.856;15.716;2022-08-21T05:24:46;5.40;;;4.90;;
20146;SDS011;10234;50.856;15.716;2022-08-21T05:27:13;5.97;;;5.38;;
20146;SDS011;10234;50.856;15.716;2022-08-21T05:29:40;5.75;;;5.25;;
20146;SDS011;10234;50.856;15.716;2022-08-21T05:32:08;5.63;;;5.03;;
20146;SDS011;10234;50.856;15.716;2022-08-21T05:34:35;6.00;;;5.07;;
20146;SDS011;10234;50.856;15.716;2022-08-21T05:37:02;5.68;;;5.18;;
20146;SDS011;10234;50.856;15.716;2022-08-21T05:39:31;7.43;;;5.18;;
20146;SDS011;10234;50.856;15.716;2022-08-21T05:41:58;5.50;;;5.00;;
20146;SDS011;10234;50.856;15.716;2022-08-21T05:44:25;8.02;;;5.43;;
20146;SDS011;10234;50.856;15.716;2022-08-21T05:46:52;6.35;;;5.53;;
20146;SDS011;10234;50.856;15.716;2022-08-21T05:49:18;6.93;;;5.03;;
20146;SDS011;10234;50.856;15.716;2022-08-21T05:51:45;6.53;;;5.30;;
20146;SDS011;10234;50.856;15.716;2022-08-21T05:54:12;6.35;;;5.22;;
20146;SDS011;10234;50.856;15.716;2022-08-21T05:56:40;5.28;;;4.78;;
20146;SDS011;10234;50.856;15.716;2022-08-21T05:59:09;6.88;;;5.28;;
20146;SDS011;10234;50.856;15.716;2022-08-21T06:01:38;6.82;;;5.05;;
20146;SDS011;10234;50.856;15.716;2022-08-21T06:04:05;5.63;;;5.03;;
20146;SDS011;10234;50.856;15.716;2022-08-21T06:06:32;6.38;;;5.20;;
20146;SDS011;10234;50.856;15.716;2022-08-21T06:08:59;6.28;;;5.50;;
20146;SDS011;10234;50.856;15.716;2022-08-21T06:11:26;5.95;;;5.35;;
20146;SDS011;10234;50.856;15.716;2022-08-21T06:13:54;6.40;;;5.35;;
20146;SDS011;10234;50.856;15.716;2022-08-21T06:16:21;5.50;;;5.00;;
20146;SDS011;10234;50.856;15.716;2022-08-21T06:18:48;5.15;;;4.70;;
20146;SDS011;10234;50.856;15.716;2022-08-21T06:21:15;5.93;;;5.05;;
20146;SDS011;10234;50.856;15.716;2022-08-21T06:23:43;7.07;;;5.63;;
20146;SDS011;10234;50.856;15.716;2022-08-21T06:26:11;8.18;;;5.40;;
20146;SDS011;10234;50.856;15.716;2022-08-21T06:28:39;6.72;;;5.43;;
20146;SDS011;10234;50.856;15.716;2022-08-21T06:31:11;5.43;;;4.95;;
20146;SDS011;10234;50.856;15.716;2022-08-21T06:33:39;4.55;;;4.15;;
20146;SDS011;10234;50.856;15.716;2022-08-21T06:36:06;5.57;;;4.82;;
20146;SDS011;10234;50.856;15.716;2022-08-21T06:38:34;7.05;;;4.60;;
20146;SDS011;10234;50.856;15.716;2022-08-21T06:41:01;7.72;;;5.13;;
20146;SDS011;10234;50.856;15.716;2022-08-21T06:43:28;7.43;;;4.60;;
20146;SDS011;10234;50.856;15.716;2022-08-21T06:45:55;5.30;;;4.80;;
20146;SDS011;10234;50.856;15.716;2022-08-21T06:48:23;5.63;;;4.70;;
20146;SDS011;10234;50.856;15.716;2022-08-21T06:50:50;5.55;;;4.70;;
20146;SDS011;10234;50.856;15.716;2022-08-21T06:53:18;8.43;;;4.43;;
20146;SDS011;10234;50.856;15.716;2022-08-21T06:55:47;6.72;;;4.78;;
20146;SDS011;10234;50.856;15.716;2022-08-21T06:58:14;4.72;;;4.32;;
20146;SDS011;10234;50.856;15.716;2022-08-21T07:00:42;4.90;;;4.50;;
20146;SDS011;10234;50.856;15.716;2022-08-21T07:03:19;4.88;;;4.40;;
20146;SDS011;10234;50.856;15.716;2022-08-21T07:05:48;6.03;;;4.55;;
20146;SDS011;10234;50.856;15.716;2022-08-21T07:08:15;6.00;;;4.60;;
20146;SDS011;10234;50.856;15.716;2022-08-21T07:10:42;7.07;;;5.30;;
20146;SDS011;10234;50.856;15.716;2022-08-21T07:13:09;5.68;;;5.10;;
20146;SDS011;10234;50.856;15.716;2022-08-21T07:15:36;5.63;;;4.50;;
20146;SDS011;10234;50.856;15.716;2022-08-21T07:18:03;6.13;;;4.40;;
20146;SDS011;10234;50.856;15.716;2022-08-21T07:20:30;5.47;;;4.97;;
20146;SDS011;10234;50.856;15.716;2022-08-21T07:23:03;5.50;;;4.97;;
20146;SDS011;10234;50.856;15.716;2022-08-21T07:25:33;7.50;;;4.57;;
20146;SDS011;10234;50.856;15.716;2022-08-21T07:28:00;4.72;;;4.22;;
20146;SDS011;10234;50.856;15.716;2022-08-21T07:30:27;6.38;;;4.50;;
20146;SDS011;10234;50.856;15.716;2022-08-21T07:32:55;5.15;;;4.35;;
20146;SDS011;10234;50.856;15.716;2022-08-21T07:35:22;5.53;;;4.30;;
20146;SDS011;10234;50.856;15.716;2022-08-21T07:37:49;5.78;;;4.78;;
20146;SDS011;10234;50.856;15.716;2022-08-21T07:40:18;4.45;;;4.05;;
20146;SDS011;10234;50.856;15.716;2022-08-21T07:42:46;5.18;;;4.20;;
20146;SDS011;10234;50.856;15.716;2022-08-21T07:45:17;6.22;;;3.92;;
20146;SDS011;10234;50.856;15.716;2022-08-21T07:47:49;5.20;;;4.38;;
20146;SDS011;10234;50.856;15.716;2022-08-21T07:50:17;6.07;;;3.40;;
20146;SDS011;10234;50.856;15.716;2022-08-21T07:52:44;5.72;;;3.60;;
20146;SDS011;10234;50.856;15.716;2022-08-21T07:55:13;4.80;;;3.22;;
20146;SDS011;10234;50.856;15.716;2022-08-21T07:57:43;6.10;;;3.30;;
20146;SDS011;10234;50.856;15.716;2022-08-21T08:00:11;4.85;;;3.60;;
20146;SDS011;10234;50.856;15.716;2022-08-21T08:02:43;4.78;;;3.67;;
20146;SDS011;10234;50.856;15.716;2022-08-21T08:05:11;5.07;;;3.17;;
20146;SDS011;10234;50.856;15.716;2022-08-21T08:07:38;3.50;;;3.10;;
20146;SDS011;10234;50.856;15.716;2022-08-21T08:10:06;5.82;;;3.47;;
20146;SDS011;10234;50.856;15.716;2022-08-21T08:12:35;3.70;;;3.22;;
20146;SDS011;10234;50.856;15.716;2022-08-21T08:15:05;6.15;;;3.75;;
20146;SDS011;10234;50.856;15.716;2022-08-21T08:17:34;4.40;;;2.83;;
20146;SDS011;10234;50.856;15.716;2022-08-21T08:20:01;3.95;;;3.38;;
20146;SDS011;10234;50.856;15.716;2022-08-21T08:22:28;4.07;;;3.10;;
20146;SDS011;10234;50.856;15.716;2022-08-21T08:24:55;3.67;;;2.88;;
20146;SDS011;10234;50.856;15.716;2022-08-21T08:27:22;5.10;;;2.45;;
20146;SDS011;10234;50.856;15.716;2022-08-21T08:29:49;2.90;;;2.50;;
20146;SDS011;10234;50.856;15.716;2022-08-21T08:32:18;3.00;;;2.70;;
20146;SDS011;10234;50.856;15.716;2022-08-21T08:34:47;3.17;;;2.50;;
20146;SDS011;10234;50.856;15.716;2022-08-21T08:37:16;3.78;;;2.95;;
20146;SDS011;10234;50.856;15.716;2022-08-21T08:39:44;3.00;;;2.65;;
20146;SDS011;10234;50.856;15.716;2022-08-21T08:42:11;3.80;;;2.75;;
20146;SDS011;10234;50.856;15.716;2022-08-21T08:44:41;3.63;;;2.30;;
20146;SDS011;10234;50.856;15.716;2022-08-21T08:47:08;2.90;;;2.50;;
20146;SDS011;10234;50.856;15.716;2022-08-21T08:49:42;2.42;;;2.22;;
20146;SDS011;10234;50.856;15.716;2022-08-21T08:52:16;2.40;;;1.92;;
20146;SDS011;10234;50.856;15.716;2022-08-21T08:54:48;2.30;;;2.10;;
20146;SDS011;10234;50.856;15.716;2022-08-21T08:57:20;2.78;;;2.58;;
20146;SDS011;10234;50.856;15.716;2022-08-21T08:59:49;3.22;;;2.30;;
20146;SDS011;10234;50.856;15.716;2022-08-21T09:02:17;3.35;;;2.45;;
20146;SDS011;10234;50.856;15.716;2022-08-21T09:04:47;2.75;;;2.20;;
20146;SDS011;10234;50.856;15.716;2022-08-21T09:07:16;4.85;;;2.70;;
20146;SDS011;10234;50.856;15.716;2022-08-21T09:10:02;3.25;;;2.63;;
20146;SDS011;10234;50.856;15.716;2022-08-21T09:12:34;5.15;;;2.35;;
20146;SDS011;10234;50.856;15.716;2022-08-21T09:15:09;3.55;;;2.67;;
20146;SDS011;10234;50.856;15.716;2022-08-21T09:17:45;5.35;;;2.65;;
20146;SDS011;10234;50.856;15.716;2022-08-21T09:20:29;3.25;;;2.45;;
20146;SDS011;10234;50.856;15.716;2022-08-21T09:23:05;2.67;;;2.38;;
20146;SDS011;10234;50.856;15.716;2022-08-21T09:25:42;3.28;;;2.40;;
20146;SDS011;10234;50.856;15.716;2022-08-21T09:28:16;3.35;;;2.55;;
20146;SDS011;10234;50.856;15.716;2022-08-21T09:30:42;3.47;;;2.13;;
20146;SDS011;10234;50.856;15.716;2022-08-21T09:33:09;5.55;;;2.10;;
20146;SDS011;10234;50.856;15.716;2022-08-21T09:35:48;4.43;;;2.17;;
20146;SDS011;10234;50.856;15.716;2022-08-21T09:38:24;4.70;;;2.00;;
20146;SDS011;10234;50.856;15.716;2022-08-21T09:40:58;3.10;;;2.08;;
20146;SDS011;10234;50.856;15.716;2022-08-21T09:43:28;3.38;;;2.05;;
20146;SDS011;10234;50.856;15.716;2022-08-21T09:48:47;2.60;;;1.88;;
20146;SDS011;10234;50.856;15.716;2022-08-21T09:51:18;5.13;;;2.03;;
20146;SDS011;10234;50.856;15.716;2022-08-21T09:53:48;5.00;;;2.90;;
20146;SDS011;10234;50.856;15.716;2022-08-21T09:56:25;3.53;;;1.80;;
20146;SDS011;10234;50.856;15.716;2022-08-21T09:59:15;2.67;;;1.70;;
20146;SDS011;10234;50.856;15.716;2022-08-21T10:01:45;2.67;;;1.50;;
20146;SDS011;10234;50.856;15.716;2022-08-21T10:04:14;3.05;;;1.98;;
20146;SDS011;10234;50.856;15.716;2022-08-21T10:06:46;4.00;;;1.75;;
20146;SDS011;10234;50.856;15.716;2022-08-21T10:09:14;4.40;;;1.92;;
20146;SDS011;10234;50.856;15.716;2022-08-21T10:11:43;2.72;;;1.80;;
20146;SDS011;10234;50.856;15.716;2022-08-21T10:14:17;4.28;;;1.70;;
20146;SDS011;10234;50.856;15.716;2022-08-21T10:16:58;3.40;;;2.10;;
20146;SDS011;10234;50.856;15.716;2022-08-21T10:19:31;5.22;;;1.52;;
20146;SDS011;10234;50.856;15.716;2022-08-21T10:22:10;2.47;;;1.40;;
20146;SDS011;10234;50.856;15.716;2022-08-21T10:24:48;3.85;;;1.42;;
20146;SDS011;10234;50.856;15.716;2022-08-21T10:27:22;3.08;;;1.33;;
20146;SDS011;10234;50.856;15.716;2022-08-21T10:30:00;3.13;;;1.83;;
20146;SDS011;10234;50.856;15.716;2022-08-21T10:32:38;3.38;;;1.50;;
20146;SDS011;10234;50.856;15.716;2022-08-21T10:35:17;4.70;;;1.88;;
20146;SDS011;10234;50.856;15.716;2022-08-21T10:37:59;2.67;;;1.63;;
20146;SDS011;10234;50.856;15.716;2022-08-21T10:40:48;3.28;;;1.80;;
20146;SDS011;10234;50.856;15.716;2022-08-21T10:43:24;3.97;;;1.80;;
20146;SDS011;10234;50.856;15.716;2022-08-21T10:46:02;5.25;;;1.60;;
20146;SDS011;10234;50.856;15.716;2022-08-21T10:48:37;2.08;;;1.67;;
20146;SDS011;10234;50.856;15.716;2022-08-21T10:51:10;3.45;;;1.33;;
20146;SDS011;10234;50.856;15.716;2022-08-21T10:53:47;10.60;;;5.95;;
20146;SDS011;10234;50.856;15.716;2022-08-21T10:56:21;3.85;;;1.35;;
20146;SDS011;10234;50.856;15.716;2022-08-21T10:58:51;5.55;;;1.65;;
20146;SDS011;10234;50.856;15.716;2022-08-21T11:01:42;1.90;;;1.30;;
20146;SDS011;10234;50.856;15.716;2022-08-21T11:04:16;4.40;;;1.58;;
20146;SDS011;10234;50.856;15.716;2022-08-21T11:06:49;6.07;;;1.77;;
20146;SDS011;10234;50.856;15.716;2022-08-21T11:09:24;5.32;;;1.80;;
20146;SDS011;10234;50.856;15.716;2022-08-21T11:11:54;3.05;;;1.52;;
20146;SDS011;10234;50.856;15.716;2022-08-21T11:14:30;2.47;;;1.70;;
20146;SDS011;10234;50.856;15.716;2022-08-21T11:17:05;4.15;;;1.92;;
20146;SDS011;10234;50.856;15.716;2022-08-21T11:19:35;3.58;;;1.90;;
20146;SDS011;10234;50.856;15.716;2022-08-21T11:22:16;12.57;;;8.93;;
20146;SDS011;10234;50.856;15.716;2022-08-21T11:24:54;3.10;;;2.03;;
20146;SDS011;10234;50.856;15.716;2022-08-21T11:27:28;4.72;;;1.80;;
20146;SDS011;10234;50.856;15.716;2022-08-21T11:30:02;3.35;;;1.95;;
20146;SDS011;10234;50.856;15.716;2022-08-21T11:32:37;3.90;;;1.92;;
20146;SDS011;10234;50.856;15.716;2022-08-21T11:35:25;5.15;;;1.92;;
20146;SDS011;10234;50.856;15.716;2022-08-21T11:38:01;3.50;;;1.67;;
20146;SDS011;10234;50.856;15.716;2022-08-21T11:40:48;4.65;;;1.80;;
20146;SDS011;10234;50.856;15.716;2022-08-21T11:43:31;4.28;;;2.00;;
20146;SDS011;10234;50.856;15.716;2022-08-21T11:46:08;4.10;;;1.83;;
20146;SDS011;10234;50.856;15.716;2022-08-21T11:48:44;4.78;;;1.80;;
20146;SDS011;10234;50.856;15.716;2022-08-21T11:54:03;5.70;;;2.00;;
20146;SDS011;10234;50.856;15.716;2022-08-21T11:56:36;3.80;;;2.00;;
20146;SDS011;10234;50.856;15.716;2022-08-21T11:59:08;4.55;;;1.90;;
20146;SDS011;10234;50.856;15.716;2022-08-21T12:01:39;4.57;;;2.15;;
20146;SDS011;10234;50.856;15.716;2022-08-21T12:04:16;7.28;;;2.38;;
20146;SDS011;10234;50.856;15.716;2022-08-21T12:06:48;5.60;;;2.10;;
20146;SDS011;10234;50.856;15.716;2022-08-21T12:09:28;3.70;;;1.77;;
20146;SDS011;10234;50.856;15.716;2022-08-21T12:12:04;4.35;;;2.53;;
20146;SDS011;10234;50.856;15.716;2022-08-21T12:14:36;3.95;;;3.38;;
20146;SDS011;10234;50.856;15.716;2022-08-21T12:17:06;4.47;;;2.17;;
20146;SDS011;10234;50.856;15.716;2022-08-21T12:19:34;14.48;;;9.65;;
20146;SDS011;10234;50.856;15.716;2022-08-21T12:22:07;34.35;;;29.38;;
20146;SDS011;10234;50.856;15.716;2022-08-21T12:24:38;53.47;;;47.80;;
20146;SDS011;10234;50.856;15.716;2022-08-21T12:27:18;25.92;;;23.10;;
20146;SDS011;10234;50.856;15.716;2022-08-21T12:29:51;16.00;;;13.60;;
20146;SDS011;10234;50.856;15.716;2022-08-21T12:32:23;107.30;;;93.00;;
20146;SDS011;10234;50.856;15.716;2022-08-21T12:34:53;10.32;;;7.88;;
20146;SDS011;10234;50.856;15.716;2022-08-21T12:37:25;3.85;;;2.90;;
20146;SDS011;10234;50.856;15.716;2022-08-21T12:40:00;4.68;;;3.42;;
20146;SDS011;10234;50.856;15.716;2022-08-21T12:42:33;4.03;;;2.20;;
20146;SDS011;10234;50.856;15.716;2022-08-21T12:45:11;43.55;;;31.13;;
20146;SDS011;10234;50.856;15.716;2022-08-21T12:47:45;54.78;;;42.70;;
20146;SDS011;10234;50.856;15.716;2022-08-21T12:50:17;77.15;;;63.58;;
20146;SDS011;10234;50.856;15.716;2022-08-21T12:52:48;24.98;;;20.80;;
20146;SDS011;10234;50.856;15.716;2022-08-21T12:55:25;145.40;;;119.88;;
20146;SDS011;10234;50.856;15.716;2022-08-21T12:57:55;103.70;;;77.63;;
20146;SDS011;10234;50.856;15.716;2022-08-21T13:00:23;63.90;;;45.95;;
20146;SDS011;10234;50.856;15.716;2022-08-21T13:02:52;130.27;;;102.18;;
20146;SDS011;10234;50.856;15.716;2022-08-21T13:05:23;61.30;;;46.95;;
20146;SDS011;10234;50.856;15.716;2022-08-21T13:07:57;21.30;;;17.70;;
20146;SDS011;10234;50.856;15.716;2022-08-21T13:10:26;6.05;;;4.47;;
20146;SDS011;10234;50.856;15.716;2022-08-21T13:12:57;5.20;;;4.32;;
20146;SDS011;10234;50.856;15.716;2022-08-21T13:15:26;9.93;;;7.75;;
20146;SDS011;10234;50.856;15.716;2022-08-21T13:17:56;4.68;;;3.50;;
20146;SDS011;10234;50.856;15.716;2022-08-21T13:20:28;7.60;;;4.40;;
20146;SDS011;10234;50.856;15.716;2022-08-21T13:22:57;32.13;;;24.23;;
20146;SDS011;10234;50.856;15.716;2022-08-21T13:25:26;35.75;;;26.42;;
20146;SDS011;10234;50.856;15.716;2022-08-21T13:28:01;5.85;;;4.90;;
20146;SDS011;10234;50.856;15.716;2022-08-21T13:30:32;3.22;;;2.42;;
20146;SDS011;10234;50.856;15.716;2022-08-21T13:33:00;4.85;;;2.92;;
20146;SDS011;10234;50.856;15.716;2022-08-21T13:35:36;4.22;;;2.60;;
20146;SDS011;10234;50.856;15.716;2022-08-21T13:38:13;3.30;;;2.13;;
20146;SDS011;10234;50.856;15.716;2022-08-21T13:40:41;7.13;;;2.58;;
20146;SDS011;10234;50.856;15.716;2022-08-21T13:43:14;4.60;;;2.75;;
20146;SDS011;10234;50.856;15.716;2022-08-21T13:45:47;3.83;;;2.50;;
20146;SDS011;10234;50.856;15.716;2022-08-21T13:48:15;2.95;;;2.45;;
20146;SDS011;10234;50.856;15.716;2022-08-21T13:50:42;3.38;;;2.22;;
20146;SDS011;10234;50.856;15.716;2022-08-21T13:53:19;3.50;;;2.53;;
20146;SDS011;10234;50.856;15.716;2022-08-21T13:55:48;3.38;;;2.00;;
20146;SDS011;10234;50.856;15.716;2022-08-21T13:58:24;3.60;;;2.20;;
20146;SDS011;10234;50.856;15.716;2022-08-21T14:00:53;3.78;;;2.53;;
20146;SDS011;10234;50.856;15.716;2022-08-21T14:03:30;2.53;;;2.15;;
20146;SDS011;10234;50.856;15.716;2022-08-21T14:05:59;4.65;;;2.55;;
20146;SDS011;10234;50.856;15.716;2022-08-21T14:08:27;4.40;;;3.15;;
20146;SDS011;10234;50.856;15.716;2022-08-21T14:10:59;4.55;;;2.75;;
20146;SDS011;10234;50.856;15.716;2022-08-21T14:13:35;4.70;;;2.58;;
20146;SDS011;10234;50.856;15.716;2022-08-21T14:16:16;4.40;;;2.28;;
20146;SDS011;10234;50.856;15.716;2022-08-21T14:18:45;6.57;;;2.70;;
20146;SDS011;10234;50.856;15.716;2022-08-21T14:21:13;3.65;;;2.60;;
20146;SDS011;10234;50.856;15.716;2022-08-21T14:23:58;2.30;;;2.10;;
20146;SDS011;10234;50.856;15.716;2022-08-21T14:26:32;2.80;;;2.47;;
20146;SDS011;10234;50.856;15.716;2022-08-21T14:29:02;4.10;;;2.40;;
20146;SDS011;10234;50.856;15.716;2022-08-21T14:31:34;4.63;;;2.10;;
20146;SDS011;10234;50.856;15.716;2022-08-21T14:34:01;2.35;;;1.75;;
20146;SDS011;10234;50.856;15.716;2022-08-21T14:36:28;5.75;;;2.53;;
20146;SDS011;10234;50.856;15.716;2022-08-21T14:38:55;5.25;;;2.45;;
20146;SDS011;10234;50.856;15.716;2022-08-21T14:41:23;4.32;;;2.20;;
20146;SDS011;10234;50.856;15.716;2022-08-21T14:43:52;3.63;;;2.67;;
20146;SDS011;10234;50.856;15.716;2022-08-21T14:46:22;4.32;;;3.08;;
20146;SDS011;10234;50.856;15.716;2022-08-21T14:48:51;4.43;;;2.58;;
20146;SDS011;10234;50.856;15.716;2022-08-21T14:51:18;4.20;;;2.50;;
20146;SDS011;10234;50.856;15.716;2022-08-21T14:53:45;4.47;;;2.88;;